createdAt,value
2023-01-13T00:00:27.318Z,66.00
2023-01-13T00:01:27.311Z,66.10
2023-01-13T00:02:27.381Z,66.10
2023-01-13T00:03:27.353Z,66.20
2023-01-13T00:04:27.462Z,66.20
2023-01-13T00:05:27.241Z,66.10
2023-01-13T00:06:27.262Z,66.31
2023-01-13T00:07:27.281Z,66.20
2023-01-13T00:08:27.237Z,66.20
2023-01-13T00:09:27.203Z,66.20
2023-01-13T00:10:27.191Z,66.20
2023-01-13T00:11:27.228Z,66.20
2023-01-13T00:12:27.169Z,66.31
2023-01-13T00:13:27.200Z,66.31
2023-01-13T00:14:27.155Z,66.31
2023-01-13T00:15:27.131Z,66.31
2023-01-13T00:16:27.132Z,66.20
2023-01-13T00:17:27.107Z,66.10
2023-01-13T00:18:27.112Z,66.10
2023-01-13T00:19:27.891Z,66.10
2023-01-13T00:20:27.075Z,66.10
2023-01-13T00:21:27.092Z,66.10
2023-01-13T00:22:27.136Z,66.10
2023-01-13T00:23:27.055Z,66.10
2023-01-13T00:24:27.030Z,66.00
2023-01-13T00:25:27.016Z,66.00
2023-01-13T00:26:27.025Z,65.89
2023-01-13T00:27:26.991Z,66.00
2023-01-13T00:28:27.041Z,66.10
2023-01-13T00:29:26.975Z,65.89
2023-01-13T00:30:26.969Z,65.89
2023-01-13T00:31:27.000Z,65.89
2023-01-13T00:32:26.983Z,65.80
2023-01-13T00:33:26.955Z,65.80
2023-01-13T00:34:26.991Z,65.86
2023-01-13T00:35:26.956Z,65.66
2023-01-13T00:36:26.949Z,65.77
2023-01-13T00:37:26.912Z,65.66
2023-01-13T00:38:26.880Z,65.66
2023-01-13T00:39:26.870Z,65.77
2023-01-13T00:40:26.891Z,65.77
2023-01-13T00:41:26.873Z,65.69
2023-01-13T00:42:26.836Z,65.69
2023-01-13T00:43:26.856Z,65.89
2023-01-13T00:44:26.812Z,65.89
2023-01-13T00:45:26.825Z,66.10
2023-01-13T00:46:26.847Z,66.00
2023-01-13T00:47:26.787Z,65.89
2023-01-13T00:48:26.805Z,66.10
2023-01-13T00:49:26.752Z,66.00
2023-01-13T00:50:26.790Z,66.20
2023-01-13T00:51:26.765Z,66.00
2023-01-13T00:52:26.752Z,65.89
2023-01-13T00:53:26.721Z,65.89
2023-01-13T00:54:26.725Z,65.89
2023-01-13T00:55:26.694Z,65.80
2023-01-13T00:56:39.731Z,65.89
2023-01-13T00:57:26.694Z,65.89
2023-01-13T00:58:26.680Z,65.89
2023-01-13T00:59:26.644Z,66.00
2023-01-13T01:00:26.669Z,66.00
2023-01-13T01:01:26.702Z,66.00
2023-01-13T01:02:26.755Z,66.00
2023-01-13T01:03:26.595Z,66.10
2023-01-13T01:04:26.581Z,66.00
2023-01-13T01:05:26.577Z,66.10
2023-01-13T01:06:26.562Z,66.00
2023-01-13T01:07:26.557Z,66.00
2023-01-13T01:08:26.550Z,65.89
2023-01-13T01:09:26.526Z,65.89
2023-01-13T01:10:26.524Z,65.89
2023-01-13T01:11:26.535Z,65.89
2023-01-13T01:12:26.566Z,65.77
2023-01-13T01:13:26.489Z,65.66
2023-01-13T01:14:26.492Z,65.56
2023-01-13T01:15:26.497Z,65.45
2023-01-13T01:16:26.569Z,65.35
2023-01-13T01:17:26.446Z,65.45
2023-01-13T01:18:26.431Z,65.25
2023-01-13T01:19:26.748Z,65.14
2023-01-13T01:20:26.431Z,65.14
2023-01-13T01:21:26.417Z,65.14
2023-01-13T01:22:26.433Z,65.14
2023-01-13T01:23:26.415Z,65.14
2023-01-13T01:24:26.371Z,65.05
2023-01-13T01:25:26.360Z,64.94
2023-01-13T01:26:26.337Z,64.94
2023-01-13T01:27:26.332Z,64.84
2023-01-13T01:28:26.383Z,64.73
2023-01-13T01:29:26.314Z,64.63
2023-01-13T01:30:26.335Z,64.43
2023-01-13T01:31:26.358Z,64.40
2023-01-13T01:32:26.299Z,64.29
2023-01-13T01:33:26.307Z,64.29
2023-01-13T01:34:26.264Z,64.09
2023-01-13T01:35:26.240Z,64.19
2023-01-13T01:36:26.229Z,64.19
2023-01-13T01:37:26.221Z,63.98
2023-01-13T01:38:26.233Z,64.09
2023-01-13T01:39:26.208Z,64.09
2023-01-13T01:40:26.197Z,64.29
2023-01-13T01:41:26.176Z,64.29
2023-01-13T01:42:26.157Z,63.98
2023-01-13T01:43:26.163Z,64.09
2023-01-13T01:44:26.139Z,64.19
2023-01-13T01:45:26.198Z,64.09
2023-01-13T01:46:26.331Z,64.09
2023-01-13T01:47:26.122Z,64.19
2023-01-13T01:48:26.104Z,64.19
2023-01-13T01:49:26.115Z,64.40
2023-01-13T01:50:26.089Z,64.09
2023-01-13T01:51:26.072Z,64.19
2023-01-13T01:52:26.056Z,64.19
2023-01-13T01:53:26.067Z,64.12
2023-01-13T01:54:26.029Z,64.32
2023-01-13T01:55:26.032Z,64.09
2023-01-13T01:56:26.000Z,64.12
2023-01-13T01:57:26.016Z,64.12
2023-01-13T01:58:26.071Z,64.22
2023-01-13T01:59:25.992Z,64.32
2023-01-13T02:00:25.997Z,64.32
2023-01-13T02:01:26.089Z,64.01
2023-01-13T02:02:25.974Z,64.12
2023-01-13T02:03:25.954Z,64.12
2023-01-13T02:04:25.915Z,64.12
2023-01-13T02:05:25.925Z,64.22
2023-01-13T02:06:25.916Z,64.01
2023-01-13T02:07:26.041Z,64.12
2023-01-13T02:08:25.945Z,64.01
2023-01-13T02:09:25.892Z,64.12
2023-01-13T02:10:25.847Z,64.12
2023-01-13T02:11:25.853Z,64.12
2023-01-13T02:12:25.840Z,63.91
2023-01-13T02:13:25.828Z,64.01
2023-01-13T02:14:25.972Z,63.91
2023-01-13T02:15:26.375Z,64.01
2023-01-13T02:16:25.823Z,63.81
2023-01-13T02:17:25.843Z,64.01
2023-01-13T02:18:25.782Z,64.01
2023-01-13T02:19:25.816Z,64.01
2023-01-13T02:20:25.746Z,64.32
2023-01-13T02:21:25.727Z,63.81
2023-01-13T02:22:25.732Z,63.91
2023-01-13T02:23:25.738Z,63.71
2023-01-13T02:24:25.706Z,63.60
2023-01-13T02:25:25.687Z,63.71
2023-01-13T02:26:25.680Z,63.91
2023-01-13T02:27:25.653Z,63.71
2023-01-13T02:28:25.715Z,63.91
2023-01-13T02:29:25.694Z,63.40
2023-01-13T02:30:25.636Z,63.40
2023-01-13T02:31:25.628Z,63.50
2023-01-13T02:32:25.639Z,63.20
2023-01-13T02:33:25.602Z,63.29
2023-01-13T02:34:25.617Z,63.20
2023-01-13T02:35:25.605Z,62.99
2023-01-13T02:36:25.569Z,62.99
2023-01-13T02:37:25.580Z,63.09
2023-01-13T02:38:25.552Z,63.09
2023-01-13T02:39:25.636Z,62.88
2023-01-13T02:40:25.552Z,62.88
2023-01-13T02:41:25.539Z,62.75
2023-01-13T02:42:25.501Z,62.78
2023-01-13T02:43:25.476Z,62.88
2023-01-13T02:44:25.536Z,62.58
2023-01-13T02:45:25.585Z,62.48
2023-01-13T02:46:25.489Z,62.58
2023-01-13T02:47:25.441Z,62.68
2023-01-13T02:48:25.420Z,62.78
2023-01-13T02:49:25.413Z,62.58
2023-01-13T02:50:25.410Z,62.68
2023-01-13T02:51:25.409Z,62.88
2023-01-13T02:52:25.379Z,62.88
2023-01-13T02:53:25.372Z,62.78
2023-01-13T02:54:25.421Z,62.48
2023-01-13T02:55:25.369Z,62.58
2023-01-13T02:56:25.354Z,62.45
2023-01-13T02:57:25.385Z,62.48
2023-01-13T02:58:25.326Z,62.45
2023-01-13T02:59:25.324Z,62.75
2023-01-13T03:00:25.264Z,62.45
2023-01-13T03:01:25.370Z,62.45
2023-01-13T03:02:25.227Z,62.75
2023-01-13T03:03:25.180Z,62.55
2023-01-13T03:04:25.172Z,62.24
2023-01-13T03:05:25.169Z,62.24
2023-01-13T03:06:25.126Z,62.55
2023-01-13T03:07:25.132Z,62.34
2023-01-13T03:08:25.115Z,62.34
2023-01-13T03:09:25.102Z,62.34
2023-01-13T03:10:25.097Z,62.14
2023-01-13T03:11:25.076Z,62.14
2023-01-13T03:12:25.109Z,62.34
2023-01-13T03:13:25.162Z,62.24
2023-01-13T03:14:25.048Z,62.24
2023-01-13T03:15:25.042Z,62.34
2023-01-13T03:16:25.019Z,62.45
2023-01-13T03:17:25.037Z,62.65
2023-01-13T03:18:24.984Z,62.34
2023-01-13T03:19:25.005Z,62.45
2023-01-13T03:20:24.971Z,62.34
2023-01-13T03:21:24.967Z,62.24
2023-01-13T03:22:24.939Z,62.14
2023-01-13T03:23:24.955Z,62.45
2023-01-13T03:24:24.964Z,62.34
2023-01-13T03:25:24.915Z,62.04
2023-01-13T03:26:24.926Z,61.80
2023-01-13T03:27:24.933Z,61.70
2023-01-13T03:28:24.897Z,61.70
2023-01-13T03:29:24.908Z,61.70
2023-01-13T03:30:24.972Z,61.70
2023-01-13T03:31:24.858Z,61.70
2023-01-13T03:32:24.850Z,61.49
2023-01-13T03:33:24.849Z,61.60
2023-01-13T03:34:24.835Z,61.49
2023-01-13T03:35:24.812Z,61.70
2023-01-13T03:36:24.879Z,61.60
2023-01-13T03:37:24.784Z,61.60
2023-01-13T03:38:24.797Z,61.80
2023-01-13T03:39:24.782Z,61.90
2023-01-13T03:40:24.775Z,61.70
2023-01-13T03:41:24.750Z,61.80
2023-01-13T03:42:24.783Z,61.80
2023-01-13T03:43:24.713Z,61.80
2023-01-13T03:44:24.726Z,61.80
2023-01-13T03:45:24.728Z,61.80
2023-01-13T03:46:24.775Z,61.90
2023-01-13T03:47:24.677Z,61.90
2023-01-13T03:48:25.287Z,62.01
2023-01-13T03:49:24.694Z,61.90
2023-01-13T03:50:24.677Z,62.01
2023-01-13T03:51:24.624Z,61.90
2023-01-13T03:52:24.627Z,62.11
2023-01-13T03:53:24.624Z,62.21
2023-01-13T03:54:24.599Z,62.11
2023-01-13T03:55:24.589Z,61.90
2023-01-13T03:56:24.576Z,62.31
2023-01-13T03:57:24.556Z,61.90
2023-01-13T03:58:24.600Z,61.90
2023-01-13T03:59:24.582Z,61.90
2023-01-13T04:00:24.538Z,62.11
2023-01-13T04:01:24.547Z,62.21
2023-01-13T04:02:24.499Z,62.21
2023-01-13T04:03:24.524Z,62.11
2023-01-13T04:04:24.484Z,62.11
2023-01-13T04:05:24.481Z,62.11
2023-01-13T04:06:24.457Z,62.11
2023-01-13T04:07:24.447Z,62.21
2023-01-13T04:08:24.440Z,62.31
2023-01-13T04:09:24.425Z,62.41
2023-01-13T04:10:24.450Z,62.31
2023-01-13T04:11:24.413Z,61.80
2023-01-13T04:12:24.399Z,61.90
2023-01-13T04:13:24.434Z,61.80
2023-01-13T04:14:24.376Z,61.70
2023-01-13T04:15:24.398Z,61.60
2023-01-13T04:16:24.380Z,61.49
2023-01-13T04:17:24.344Z,61.60
2023-01-13T04:18:24.327Z,61.70
2023-01-13T04:19:24.307Z,61.49
2023-01-13T04:20:24.309Z,61.49
2023-01-13T04:21:24.287Z,61.49
2023-01-13T04:22:24.298Z,61.39
2023-01-13T04:23:24.307Z,61.39
2023-01-13T04:24:24.280Z,61.70
2023-01-13T04:25:24.256Z,61.39
2023-01-13T04:26:24.808Z,61.18
2023-01-13T04:27:24.253Z,61.08
2023-01-13T04:28:24.230Z,61.08
2023-01-13T04:29:24.277Z,60.77
2023-01-13T04:30:24.202Z,60.57
2023-01-13T04:31:24.279Z,60.47
2023-01-13T04:32:24.195Z,60.67
2023-01-13T04:33:24.174Z,60.36
2023-01-13T04:34:25.175Z,60.16
2023-01-13T04:35:24.140Z,60.13
2023-01-13T04:36:24.138Z,59.62
2023-01-13T04:37:24.110Z,59.41
2023-01-13T04:38:24.115Z,59.52
2023-01-13T04:39:24.092Z,59.62
2023-01-13T04:40:24.304Z,59.62
2023-01-13T04:41:24.073Z,59.41
2023-01-13T04:42:24.159Z,59.52
2023-01-13T04:43:24.045Z,59.20
2023-01-13T04:44:24.763Z,58.90
2023-01-13T04:45:24.036Z,58.69
2023-01-13T04:46:24.651Z,58.59
2023-01-13T04:47:24.075Z,58.56
2023-01-13T04:48:24.018Z,58.46
2023-01-13T04:49:24.008Z,58.05
2023-01-13T04:50:23.981Z,57.84
2023-01-13T04:51:23.955Z,57.95
2023-01-13T04:52:23.944Z,57.75
2023-01-13T04:53:23.930Z,57.54
2023-01-13T04:54:23.950Z,57.64
2023-01-13T04:55:24.013Z,57.43
2023-01-13T04:56:23.936Z,57.64
2023-01-13T04:57:23.903Z,57.61
2023-01-13T04:58:23.889Z,57.71
2023-01-13T04:59:23.868Z,57.61
2023-01-13T05:00:24.024Z,57.51
2023-01-13T05:01:24.040Z,57.61
2023-01-13T05:02:23.899Z,57.51
2023-01-13T05:03:23.825Z,57.41
2023-01-13T05:04:23.875Z,57.31
2023-01-13T05:05:23.827Z,57.20
2023-01-13T05:06:23.816Z,57.51
2023-01-13T05:07:23.804Z,57.31
2023-01-13T05:08:23.780Z,57.31
2023-01-13T05:09:23.868Z,57.41
2023-01-13T05:10:24.237Z,57.31
2023-01-13T05:11:23.744Z,57.61
2023-01-13T05:12:23.721Z,57.41
2023-01-13T05:13:23.727Z,57.41
2023-01-13T05:14:23.716Z,57.61
2023-01-13T05:15:23.687Z,57.71
2023-01-13T05:16:23.913Z,57.51
2023-01-13T05:17:23.667Z,57.51
2023-01-13T05:18:23.676Z,57.59
2023-01-13T05:19:23.651Z,57.48
2023-01-13T05:20:23.659Z,57.48
2023-01-13T05:21:23.636Z,57.59
2023-01-13T05:22:23.632Z,57.69
2023-01-13T05:23:23.627Z,57.59
2023-01-13T05:24:23.602Z,57.59
2023-01-13T05:25:23.600Z,57.69
2023-01-13T05:26:23.607Z,57.69
2023-01-13T05:27:23.548Z,57.69
2023-01-13T05:28:23.604Z,57.69
2023-01-13T05:29:23.528Z,57.69
2023-01-13T05:30:23.548Z,57.79
2023-01-13T05:31:23.568Z,57.59
2023-01-13T05:32:23.513Z,57.79
2023-01-13T05:33:23.505Z,57.48
2023-01-13T05:34:23.483Z,57.48
2023-01-13T05:35:23.471Z,57.35
2023-01-13T05:36:23.611Z,57.46
2023-01-13T05:37:23.447Z,57.46
2023-01-13T05:38:23.483Z,57.56
2023-01-13T05:39:23.434Z,57.66
2023-01-13T05:40:23.420Z,57.56
2023-01-13T05:41:23.521Z,57.56
2023-01-13T05:42:23.394Z,57.35
2023-01-13T05:43:23.383Z,57.35
2023-01-13T05:44:23.367Z,57.46
2023-01-13T05:45:23.411Z,57.35
2023-01-13T05:46:23.384Z,57.35
2023-01-13T05:47:23.328Z,57.56
2023-01-13T05:48:23.346Z,57.25
2023-01-13T05:49:23.305Z,57.15
2023-01-13T05:50:23.301Z,57.15
2023-01-13T05:51:23.297Z,57.15
2023-01-13T05:52:23.283Z,57.15
2023-01-13T05:53:23.263Z,57.05
2023-01-13T05:54:23.299Z,57.05
2023-01-13T05:55:23.239Z,56.95
2023-01-13T05:56:23.287Z,56.95
2023-01-13T05:57:23.262Z,57.05
2023-01-13T05:58:23.210Z,57.15
2023-01-13T05:59:23.200Z,57.15
2023-01-13T06:00:23.191Z,57.15
2023-01-13T06:01:23.185Z,57.15
2023-01-13T06:02:23.162Z,57.15
2023-01-13T06:03:23.240Z,57.25
2023-01-13T06:04:23.227Z,57.35
2023-01-13T06:05:23.130Z,57.25
2023-01-13T06:06:23.192Z,57.25
2023-01-13T06:07:23.109Z,57.56
2023-01-13T06:08:23.103Z,57.56
2023-01-13T06:09:23.102Z,57.66
2023-01-13T06:10:23.084Z,57.56
2023-01-13T06:11:23.172Z,57.56
2023-01-13T06:12:23.100Z,57.69
2023-01-13T06:13:23.059Z,57.76
2023-01-13T06:14:23.056Z,57.76
2023-01-13T06:15:23.041Z,57.66
2023-01-13T06:16:23.174Z,57.76
2023-01-13T06:17:23.007Z,57.87
2023-01-13T06:18:23.030Z,57.76
2023-01-13T06:19:23.199Z,57.76
2023-01-13T06:20:22.961Z,57.97
2023-01-13T06:21:23.044Z,58.17
2023-01-13T06:22:23.833Z,57.97
2023-01-13T06:23:22.948Z,57.97
2023-01-13T06:24:22.950Z,58.17
2023-01-13T06:25:22.909Z,58.17
2023-01-13T06:26:22.904Z,58.17
2023-01-13T06:27:22.913Z,57.97
2023-01-13T06:28:22.906Z,58.17
2023-01-13T06:29:22.872Z,58.28
2023-01-13T06:30:22.864Z,58.17
2023-01-13T06:31:23.840Z,58.28
2023-01-13T06:32:22.852Z,58.28
2023-01-13T06:33:22.823Z,58.48
2023-01-13T06:34:22.878Z,58.58
2023-01-13T06:35:22.878Z,58.58
2023-01-13T06:36:22.786Z,58.58
2023-01-13T06:37:22.796Z,58.69
2023-01-13T06:38:22.776Z,58.79
2023-01-13T06:39:22.764Z,58.89
2023-01-13T06:40:22.742Z,58.89
2023-01-13T06:41:23.304Z,59.00
2023-01-13T06:42:22.745Z,59.09
2023-01-13T06:43:22.730Z,59.09
2023-01-13T06:44:22.731Z,59.20
2023-01-13T06:45:22.725Z,59.20
2023-01-13T06:46:22.725Z,59.20
2023-01-13T06:47:22.698Z,59.30
2023-01-13T06:48:22.658Z,59.30
2023-01-13T06:49:22.725Z,59.41
2023-01-13T06:50:22.675Z,59.30
2023-01-13T06:51:22.743Z,59.41
2023-01-13T06:52:22.637Z,59.41
2023-01-13T06:53:22.606Z,59.41
2023-01-13T06:54:22.757Z,59.50
2023-01-13T06:55:22.583Z,59.41
2023-01-13T06:56:22.628Z,59.50
2023-01-13T06:57:22.595Z,59.50
2023-01-13T06:58:22.544Z,59.71
2023-01-13T06:59:22.545Z,59.61
2023-01-13T07:00:22.606Z,59.50
2023-01-13T07:01:22.766Z,59.50
2023-01-13T07:02:22.758Z,59.71
2023-01-13T07:03:22.492Z,59.71
2023-01-13T07:04:22.488Z,59.81
2023-01-13T07:05:22.477Z,59.81
2023-01-13T07:06:22.473Z,59.84
2023-01-13T07:07:22.484Z,59.94
2023-01-13T07:08:22.443Z,59.84
2023-01-13T07:09:22.518Z,59.84
2023-01-13T07:10:22.627Z,59.74
2023-01-13T07:11:22.411Z,59.81
2023-01-13T07:12:22.457Z,59.50
2023-01-13T07:13:22.383Z,59.50
2023-01-13T07:14:22.394Z,59.61
2023-01-13T07:15:22.378Z,61.35
2023-01-13T07:16:22.372Z,63.12
2023-01-13T07:17:22.375Z,63.64
2023-01-13T07:18:22.364Z,63.84
2023-01-13T07:19:22.375Z,61.92
2023-01-13T07:20:22.311Z,61.51
2023-01-13T07:21:22.294Z,62.23
2023-01-13T07:22:22.286Z,61.82
2023-01-13T07:23:22.288Z,61.82
2023-01-13T07:24:22.265Z,60.79
2023-01-13T07:25:22.370Z,61.10
2023-01-13T07:26:22.238Z,61.20
2023-01-13T07:27:22.246Z,60.69
2023-01-13T07:28:22.347Z,60.69
2023-01-13T07:29:22.199Z,60.49
2023-01-13T07:30:22.192Z,60.89
2023-01-13T07:31:22.203Z,60.49
2023-01-13T07:32:22.331Z,60.17
2023-01-13T07:33:22.183Z,60.58
2023-01-13T07:34:22.157Z,60.38
2023-01-13T07:35:22.177Z,60.58
2023-01-13T07:36:22.117Z,60.28
2023-01-13T07:37:22.129Z,60.17
2023-01-13T07:38:22.163Z,60.15
2023-01-13T07:39:22.110Z,60.25
2023-01-13T07:40:22.089Z,59.84
2023-01-13T07:41:22.235Z,60.15
2023-01-13T07:42:22.054Z,60.15
2023-01-13T07:43:22.066Z,59.84
2023-01-13T07:44:22.033Z,59.84
2023-01-13T07:45:22.023Z,59.84
2023-01-13T07:46:22.029Z,60.05
2023-01-13T07:47:22.083Z,59.84
2023-01-13T07:48:22.028Z,59.94
2023-01-13T07:49:21.997Z,60.05
2023-01-13T07:50:21.956Z,59.74
2023-01-13T07:51:21.966Z,59.74
2023-01-13T07:52:21.958Z,59.33
2023-01-13T07:53:21.996Z,59.23
2023-01-13T07:54:35.173Z,59.43
2023-01-13T07:55:21.944Z,59.12
2023-01-13T07:56:21.901Z,58.81
2023-01-13T07:57:21.924Z,58.81
2023-01-13T07:58:23.459Z,58.92
2023-01-13T07:59:21.924Z,58.58
2023-01-13T08:00:21.894Z,58.58
2023-01-13T08:01:21.975Z,58.48
2023-01-13T08:02:22.079Z,58.48
2023-01-13T08:03:21.846Z,58.28
2023-01-13T08:04:21.810Z,58.28
2023-01-13T08:05:21.843Z,58.38
2023-01-13T08:06:21.791Z,58.28
2023-01-13T08:07:21.816Z,57.97
2023-01-13T08:08:21.800Z,58.17
2023-01-13T08:09:21.755Z,58.17
2023-01-13T08:10:21.737Z,58.17
2023-01-13T08:11:23.555Z,58.17
2023-01-13T08:12:21.798Z,58.38
2023-01-13T08:13:21.725Z,58.38
2023-01-13T08:14:21.811Z,58.58
2023-01-13T08:15:21.700Z,58.58
2023-01-13T08:16:21.688Z,58.58
2023-01-13T08:17:21.709Z,58.79
2023-01-13T08:18:21.692Z,58.79
2023-01-13T08:19:21.688Z,59.00
2023-01-13T08:20:21.691Z,59.00
2023-01-13T08:21:21.697Z,59.00
2023-01-13T08:22:21.608Z,59.00
2023-01-13T08:23:21.612Z,59.09
2023-01-13T08:24:21.615Z,59.00
2023-01-13T08:25:21.618Z,59.09
2023-01-13T08:26:21.580Z,59.00
2023-01-13T08:27:21.564Z,58.89
2023-01-13T08:28:21.718Z,58.97
2023-01-13T08:29:21.623Z,58.86
2023-01-13T08:30:21.527Z,58.97
2023-01-13T08:31:21.616Z,58.86
2023-01-13T08:32:24.969Z,58.45
2023-01-13T08:33:21.484Z,58.76
2023-01-13T08:34:21.508Z,58.66
2023-01-13T08:35:21.456Z,58.35
2023-01-13T08:36:21.455Z,58.35
2023-01-13T08:37:21.470Z,58.25
2023-01-13T08:38:21.428Z,57.84
2023-01-13T08:39:21.478Z,57.84
2023-01-13T08:40:21.424Z,57.61
2023-01-13T08:41:21.428Z,57.30
2023-01-13T08:42:21.420Z,57.40
2023-01-13T08:43:21.392Z,57.30
2023-01-13T08:44:21.457Z,57.51
2023-01-13T08:45:21.360Z,57.20
2023-01-13T08:46:21.455Z,57.20
2023-01-13T08:47:21.344Z,57.20
2023-01-13T08:48:21.337Z,56.99
2023-01-13T08:49:21.371Z,56.99
2023-01-13T08:50:21.396Z,57.30
2023-01-13T08:51:21.297Z,57.20
2023-01-13T08:52:21.275Z,56.99
2023-01-13T08:53:21.309Z,56.99
2023-01-13T08:54:21.289Z,56.89
2023-01-13T08:55:21.304Z,57.30
2023-01-13T08:56:21.225Z,57.10
2023-01-13T08:57:21.254Z,57.10
2023-01-13T08:58:21.793Z,57.10
2023-01-13T08:59:21.250Z,56.99
2023-01-13T09:00:21.195Z,56.97
2023-01-13T09:01:21.304Z,56.97
2023-01-13T09:02:21.389Z,56.76
2023-01-13T09:03:21.170Z,56.87
2023-01-13T09:04:21.215Z,56.76
2023-01-13T09:05:21.158Z,56.76
2023-01-13T09:06:21.158Z,56.66
2023-01-13T09:07:21.194Z,56.46
2023-01-13T09:08:21.099Z,56.56
2023-01-13T09:09:21.121Z,56.76
2023-01-13T09:10:21.097Z,56.66
2023-01-13T09:11:21.060Z,56.66
2023-01-13T09:12:22.852Z,56.56
2023-01-13T09:13:21.042Z,56.46
2023-01-13T09:14:21.048Z,56.35
2023-01-13T09:15:21.015Z,56.35
2023-01-13T09:16:21.037Z,56.35
2023-01-13T09:17:22.374Z,56.25
2023-01-13T09:18:24.807Z,56.02
2023-01-13T09:19:31.297Z,55.92
2023-01-13T09:20:20.966Z,55.82
2023-01-13T09:21:20.959Z,55.92
2023-01-13T09:22:20.972Z,55.92
2023-01-13T09:23:20.981Z,55.92
2023-01-13T09:24:21.115Z,55.62
2023-01-13T09:25:20.929Z,55.62
2023-01-13T09:26:20.981Z,55.41
2023-01-13T09:27:20.888Z,55.30
2023-01-13T09:28:20.881Z,55.41
2023-01-13T09:29:21.092Z,55.10
2023-01-13T09:30:20.892Z,54.97
2023-01-13T09:31:21.010Z,54.97
2023-01-13T09:32:20.862Z,54.87
2023-01-13T09:33:20.824Z,54.87
2023-01-13T09:34:20.802Z,54.87
2023-01-13T09:35:20.851Z,54.67
2023-01-13T09:36:20.787Z,54.67
2023-01-13T09:37:21.843Z,54.77
2023-01-13T09:38:20.761Z,54.67
2023-01-13T09:39:21.521Z,54.57
2023-01-13T09:40:29.845Z,54.77
2023-01-13T09:41:20.737Z,54.57
2023-01-13T09:42:20.709Z,54.46
2023-01-13T09:43:20.798Z,54.57
2023-01-13T09:44:21.358Z,54.64
2023-01-13T09:45:20.709Z,54.44
2023-01-13T09:46:21.963Z,54.44
2023-01-13T09:47:20.682Z,54.44
2023-01-13T09:48:21.362Z,54.44
2023-01-13T09:49:20.696Z,54.23
2023-01-13T09:50:20.882Z,54.33
2023-01-13T09:51:20.638Z,54.33
2023-01-13T09:52:20.609Z,54.33
2023-01-13T09:53:20.597Z,54.23
2023-01-13T09:54:20.629Z,54.13
2023-01-13T09:55:20.617Z,54.33
2023-01-13T09:56:20.627Z,54.13
2023-01-13T09:57:20.576Z,54.13
2023-01-13T09:58:20.585Z,54.11
2023-01-13T09:59:20.526Z,54.11
2023-01-13T10:00:20.607Z,53.90
2023-01-13T10:01:20.595Z,54.00
2023-01-13T10:02:20.510Z,54.21
2023-01-13T10:03:20.613Z,54.11
2023-01-13T10:04:20.545Z,54.11
2023-01-13T10:05:20.518Z,54.41
2023-01-13T10:06:20.568Z,54.51
2023-01-13T10:07:21.462Z,54.51
2023-01-13T10:08:20.469Z,54.51
2023-01-13T10:09:20.418Z,54.72
2023-01-13T10:10:20.508Z,54.72
2023-01-13T10:11:20.660Z,54.82
2023-01-13T10:12:20.448Z,55.23
2023-01-13T10:13:20.447Z,55.23
2023-01-13T10:14:20.479Z,55.33
2023-01-13T10:15:20.387Z,55.46
2023-01-13T10:16:20.389Z,55.56
2023-01-13T10:17:20.346Z,55.66
2023-01-13T10:18:20.347Z,55.87
2023-01-13T10:19:20.473Z,55.87
2023-01-13T10:20:20.329Z,56.07
2023-01-13T10:21:20.313Z,56.07
2023-01-13T10:22:20.318Z,55.97
2023-01-13T10:23:20.265Z,55.97
2023-01-13T10:24:20.256Z,56.17
2023-01-13T10:25:20.325Z,56.38
2023-01-13T10:26:20.632Z,56.58
2023-01-13T10:27:20.211Z,56.71
2023-01-13T10:28:20.972Z,56.58
2023-01-13T10:29:20.196Z,56.68
2023-01-13T10:30:20.305Z,56.68
2023-01-13T10:31:20.338Z,56.58
2023-01-13T10:32:20.174Z,56.58
2023-01-13T10:33:20.167Z,56.38
2023-01-13T10:34:20.227Z,56.38
2023-01-13T10:35:20.220Z,56.68
2023-01-13T10:36:20.156Z,56.48
2023-01-13T10:37:20.145Z,80.82
2023-01-13T10:38:20.140Z,85.75
2023-01-13T10:39:22.120Z,84.38
2023-01-13T10:40:20.095Z,80.87
2023-01-13T10:41:20.055Z,66.94
2023-01-13T10:42:20.053Z,49.24
2023-01-13T10:43:20.047Z,50.12
2023-01-13T10:44:20.075Z,50.90
2023-01-13T10:45:20.023Z,52.28
2023-01-13T10:46:20.072Z,53.44
2023-01-13T10:47:20.015Z,54.21
2023-01-13T10:48:19.991Z,54.54
2023-01-13T10:49:19.965Z,55.07
2023-01-13T10:50:19.988Z,55.48
2023-01-13T10:51:19.937Z,55.58
2023-01-13T10:52:19.999Z,55.69
2023-01-13T10:53:19.932Z,55.79
2023-01-13T10:54:19.960Z,55.89
2023-01-13T10:55:20.336Z,55.89
2023-01-13T10:56:19.944Z,55.89
2023-01-13T10:57:19.979Z,55.69
2023-01-13T10:58:19.883Z,55.69
2023-01-13T10:59:19.895Z,55.35
2023-01-13T11:00:19.867Z,55.35
2023-01-13T11:01:19.997Z,55.26
2023-01-13T11:02:25.943Z,55.35
2023-01-13T11:03:19.813Z,55.15
2023-01-13T11:04:19.801Z,54.85
2023-01-13T11:05:19.850Z,54.64
2023-01-13T11:06:19.797Z,54.64
2023-01-13T11:07:19.809Z,54.74
2023-01-13T11:08:20.419Z,54.61
2023-01-13T11:09:19.796Z,54.61
2023-01-13T11:10:19.812Z,54.72
2023-01-13T11:11:20.412Z,54.61
2023-01-13T11:12:19.813Z,54.51
2023-01-13T11:13:19.734Z,54.51
2023-01-13T11:14:19.751Z,54.51
2023-01-13T11:15:20.248Z,54.51
2023-01-13T11:16:19.856Z,54.41
2023-01-13T11:17:19.880Z,54.61
2023-01-13T11:18:19.642Z,55.02
2023-01-13T11:19:19.623Z,55.22
2023-01-13T11:20:19.620Z,55.53
2023-01-13T11:21:19.649Z,55.76
2023-01-13T11:22:19.611Z,56.58
2023-01-13T11:23:19.597Z,57.39
2023-01-13T11:24:19.588Z,58.31
2023-01-13T11:25:19.624Z,58.95
2023-01-13T11:26:19.650Z,59.26
2023-01-13T11:27:19.536Z,59.56
2023-01-13T11:28:21.340Z,60.07
2023-01-13T11:29:19.514Z,60.58
2023-01-13T11:30:19.604Z,60.38
2023-01-13T11:31:19.578Z,60.58
2023-01-13T11:32:19.588Z,60.82
2023-01-13T11:33:19.495Z,60.61
2023-01-13T11:34:19.567Z,60.71
2023-01-13T11:35:19.501Z,60.21
2023-01-13T11:36:20.691Z,60.61
2023-01-13T11:37:19.452Z,60.41
2023-01-13T11:38:19.422Z,60.41
2023-01-13T11:39:19.400Z,60.30
2023-01-13T11:40:19.406Z,59.89
2023-01-13T11:41:19.428Z,59.80
2023-01-13T11:42:19.392Z,59.59
2023-01-13T11:43:20.401Z,59.49
2023-01-13T11:44:19.541Z,59.59
2023-01-13T11:45:19.340Z,59.49
2023-01-13T11:46:19.434Z,59.49
2023-01-13T11:47:19.441Z,59.59
2023-01-13T11:48:19.395Z,59.69
2023-01-13T11:49:21.499Z,59.69
2023-01-13T11:50:19.383Z,59.69
2023-01-13T11:51:19.410Z,59.59
2023-01-13T11:52:19.276Z,59.49
2023-01-13T11:53:19.242Z,59.80
2023-01-13T11:54:19.256Z,59.80
2023-01-13T11:55:20.591Z,59.59
2023-01-13T11:56:19.251Z,59.80
2023-01-13T11:57:19.286Z,59.89
2023-01-13T11:58:19.241Z,59.80
2023-01-13T11:59:19.221Z,59.80
2023-01-13T12:00:19.235Z,59.89
2023-01-13T12:01:21.544Z,59.89
2023-01-13T12:02:19.249Z,60.00
2023-01-13T12:03:19.318Z,60.00
2023-01-13T12:04:19.149Z,60.00
2023-01-13T12:05:19.161Z,59.92
2023-01-13T12:06:19.119Z,60.03
2023-01-13T12:07:21.413Z,60.13
2023-01-13T12:08:19.155Z,60.13
2023-01-13T12:09:19.091Z,60.23
2023-01-13T12:10:19.068Z,60.33
2023-01-13T12:11:19.063Z,60.33
2023-01-13T12:12:19.148Z,60.44
2023-01-13T12:13:19.049Z,60.44
2023-01-13T12:14:19.058Z,60.53
2023-01-13T12:15:19.022Z,60.03
2023-01-13T12:16:19.028Z,60.13
2023-01-13T12:17:18.998Z,60.23
2023-01-13T12:18:18.991Z,60.33
2023-01-13T12:19:18.957Z,60.44
2023-01-13T12:20:18.982Z,60.13
2023-01-13T12:21:18.944Z,60.33
2023-01-13T12:22:18.961Z,60.23
2023-01-13T12:23:18.964Z,60.23
2023-01-13T12:24:18.940Z,60.33
2023-01-13T12:25:19.046Z,60.44
2023-01-13T12:26:18.995Z,60.33
2023-01-13T12:27:19.889Z,60.44
2023-01-13T12:28:19.012Z,60.33
2023-01-13T12:29:18.864Z,60.36
2023-01-13T12:30:18.921Z,60.36
2023-01-13T12:31:20.814Z,60.46
2023-01-13T12:32:18.893Z,60.57
2023-01-13T12:33:18.910Z,60.80
2023-01-13T12:34:18.802Z,60.90
2023-01-13T12:35:18.838Z,60.80
2023-01-13T12:36:18.810Z,60.80
2023-01-13T12:37:18.810Z,60.80
2023-01-13T12:38:19.561Z,60.90
2023-01-13T12:39:18.738Z,60.90
2023-01-13T12:40:18.819Z,60.80
2023-01-13T12:41:18.707Z,60.80
2023-01-13T12:42:18.734Z,60.80
2023-01-13T12:43:18.711Z,60.90
2023-01-13T12:44:18.689Z,60.90
2023-01-13T12:45:18.788Z,61.00
2023-01-13T12:46:18.938Z,61.10
2023-01-13T12:47:18.888Z,61.21
2023-01-13T12:48:18.831Z,61.51
2023-01-13T12:49:18.716Z,61.31
2023-01-13T12:50:19.421Z,61.31
2023-01-13T12:51:18.748Z,61.31
2023-01-13T12:52:18.602Z,61.54